sensor_id;sensor_type;location;lat;lon;timestamp;P1;durP1;ratioP1;P2;durP2;ratioP2
18610;SDS011;9435;52.122;5.502;2022-12-04T00:02:16;84.40;;;26.30;;
18610;SDS011;9435;52.122;5.502;2022-12-04T00:04:43;85.90;;;27.33;;
18610;SDS011;9435;52.122;5.502;2022-12-04T00:07:10;85.80;;;27.20;;
18610;SDS011;9435;52.122;5.502;2022-12-04T00:09:37;85.50;;;26.67;;
18610;SDS011;9435;52.122;5.502;2022-12-04T00:12:06;83.78;;;26.67;;
18610;SDS011;9435;52.122;5.502;2022-12-04T00:14:33;93.47;;;28.35;;
18610;SDS011;9435;52.122;5.502;2022-12-04T00:17:00;84.03;;;26.58;;
18610;SDS011;9435;52.122;5.502;2022-12-04T00:19:27;87.03;;;26.65;;
18610;SDS011;9435;52.122;5.502;2022-12-04T00:21:54;86.18;;;27.27;;
18610;SDS011;9435;52.122;5.502;2022-12-04T00:24:21;82.10;;;27.17;;
18610;SDS011;9435;52.122;5.502;2022-12-04T00:26:48;77.25;;;26.17;;
18610;SDS011;9435;52.122;5.502;2022-12-04T00:29:16;86.07;;;28.95;;
18610;SDS011;9435;52.122;5.502;2022-12-04T00:31:44;87.22;;;27.63;;
18610;SDS011;9435;52.122;5.502;2022-12-04T00:34:11;87.13;;;28.42;;
18610;SDS011;9435;52.122;5.502;2022-12-04T00:36:38;88.78;;;27.33;;
18610;SDS011;9435;52.122;5.502;2022-12-04T00:39:05;86.07;;;28.65;;
18610;SDS011;9435;52.122;5.502;2022-12-04T00:41:32;88.45;;;27.10;;
18610;SDS011;9435;52.122;5.502;2022-12-04T00:44:00;84.43;;;27.00;;
18610;SDS011;9435;52.122;5.502;2022-12-04T00:46:29;85.15;;;27.85;;
18610;SDS011;9435;52.122;5.502;2022-12-04T00:48:56;83.30;;;27.15;;
18610;SDS011;9435;52.122;5.502;2022-12-04T00:51:26;90.80;;;27.92;;
18610;SDS011;9435;52.122;5.502;2022-12-04T00:53:53;88.07;;;27.73;;
18610;SDS011;9435;52.122;5.502;2022-12-04T00:56:22;84.88;;;27.70;;
18610;SDS011;9435;52.122;5.502;2022-12-04T00:58:50;88.60;;;28.77;;
18610;SDS011;9435;52.122;5.502;2022-12-04T01:01:18;94.15;;;29.00;;
18610;SDS011;9435;52.122;5.502;2022-12-04T01:03:48;88.10;;;27.02;;
18610;SDS011;9435;52.122;5.502;2022-12-04T01:06:16;82.30;;;26.35;;
18610;SDS011;9435;52.122;5.502;2022-12-04T01:08:44;92.32;;;28.20;;
18610;SDS011;9435;52.122;5.502;2022-12-04T01:11:12;85.60;;;28.13;;
18610;SDS011;9435;52.122;5.502;2022-12-04T01:13:39;88.03;;;27.60;;
18610;SDS011;9435;52.122;5.502;2022-12-04T01:16:06;93.03;;;28.25;;
18610;SDS011;9435;52.122;5.502;2022-12-04T01:18:33;86.28;;;27.08;;
18610;SDS011;9435;52.122;5.502;2022-12-04T01:21:02;84.53;;;27.50;;
18610;SDS011;9435;52.122;5.502;2022-12-04T01:23:29;91.18;;;27.95;;
18610;SDS011;9435;52.122;5.502;2022-12-04T01:25:56;94.93;;;29.75;;
18610;SDS011;9435;52.122;5.502;2022-12-04T01:28:24;87.50;;;28.05;;
18610;SDS011;9435;52.122;5.502;2022-12-04T01:31:01;86.85;;;27.75;;
18610;SDS011;9435;52.122;5.502;2022-12-04T01:33:30;93.03;;;28.00;;
18610;SDS011;9435;52.122;5.502;2022-12-04T01:35:59;84.22;;;29.15;;
18610;SDS011;9435;52.122;5.502;2022-12-04T01:38:28;94.05;;;29.27;;
18610;SDS011;9435;52.122;5.502;2022-12-04T01:40:55;91.18;;;29.50;;
18610;SDS011;9435;52.122;5.502;2022-12-04T01:43:22;83.60;;;28.38;;
18610;SDS011;9435;52.122;5.502;2022-12-04T01:45:51;92.15;;;29.83;;
18610;SDS011;9435;52.122;5.502;2022-12-04T01:48:21;86.88;;;28.33;;
18610;SDS011;9435;52.122;5.502;2022-12-04T01:50:53;93.00;;;29.92;;
18610;SDS011;9435;52.122;5.502;2022-12-04T01:53:23;88.25;;;29.60;;
18610;SDS011;9435;52.122;5.502;2022-12-04T01:55:53;86.25;;;29.38;;
18610;SDS011;9435;52.122;5.502;2022-12-04T01:58:22;86.93;;;27.90;;
18610;SDS011;9435;52.122;5.502;2022-12-04T02:00:54;88.47;;;29.30;;
18610;SDS011;9435;52.122;5.502;2022-12-04T02:03:26;85.07;;;28.73;;
18610;SDS011;9435;52.122;5.502;2022-12-04T02:05:53;84.55;;;28.52;;
18610;SDS011;9435;52.122;5.502;2022-12-04T02:08:20;91.22;;;27.98;;
18610;SDS011;9435;52.122;5.502;2022-12-04T02:10:49;85.35;;;27.90;;
18610;SDS011;9435;52.122;5.502;2022-12-04T02:13:28;88.45;;;28.67;;
18610;SDS011;9435;52.122;5.502;2022-12-04T02:16:02;85.55;;;28.60;;
18610;SDS011;9435;52.122;5.502;2022-12-04T02:18:38;89.97;;;29.60;;
18610;SDS011;9435;52.122;5.502;2022-12-04T02:21:12;85.20;;;28.30;;
18610;SDS011;9435;52.122;5.502;2022-12-04T02:23:50;87.75;;;29.60;;
18610;SDS011;9435;52.122;5.502;2022-12-04T02:26:42;91.95;;;29.10;;
18610;SDS011;9435;52.122;5.502;2022-12-04T02:29:18;91.20;;;28.38;;
18610;SDS011;9435;52.122;5.502;2022-12-04T02:31:53;91.50;;;28.80;;
18610;SDS011;9435;52.122;5.502;2022-12-04T02:34:25;92.78;;;28.50;;
18610;SDS011;9435;52.122;5.502;2022-12-04T02:36:56;92.53;;;30.17;;
18610;SDS011;9435;52.122;5.502;2022-12-04T02:39:27;88.72;;;29.33;;
18610;SDS011;9435;52.122;5.502;2022-12-04T02:42:01;90.63;;;29.05;;
18610;SDS011;9435;52.122;5.502;2022-12-04T02:44:37;94.55;;;29.80;;
18610;SDS011;9435;52.122;5.502;2022-12-04T02:47:10;93.43;;;29.48;;
18610;SDS011;9435;52.122;5.502;2022-12-04T02:49:40;93.72;;;29.48;;
18610;SDS011;9435;52.122;5.502;2022-12-04T02:52:11;89.38;;;28.92;;
18610;SDS011;9435;52.122;5.502;2022-12-04T02:54:45;96.28;;;30.33;;
18610;SDS011;9435;52.122;5.502;2022-12-04T02:57:14;89.00;;;29.55;;
18610;SDS011;9435;52.122;5.502;2022-12-04T02:59:47;92.47;;;30.45;;
18610;SDS011;9435;52.122;5.502;2022-12-04T03:02:17;84.65;;;28.67;;
18610;SDS011;9435;52.122;5.502;2022-12-04T03:04:49;93.07;;;30.25;;
18610;SDS011;9435;52.122;5.502;2022-12-04T03:07:21;91.00;;;29.98;;
18610;SDS011;9435;52.122;5.502;2022-12-04T03:09:53;88.65;;;29.60;;
18610;SDS011;9435;52.122;5.502;2022-12-04T03:12:25;91.63;;;29.48;;
18610;SDS011;9435;52.122;5.502;2022-12-04T03:14:57;90.32;;;29.67;;
18610;SDS011;9435;52.122;5.502;2022-12-04T03:17:28;94.47;;;30.23;;
18610;SDS011;9435;52.122;5.502;2022-12-04T03:20:01;89.13;;;29.08;;
18610;SDS011;9435;52.122;5.502;2022-12-04T03:22:30;92.55;;;29.60;;
18610;SDS011;9435;52.122;5.502;2022-12-04T03:25:01;84.38;;;25.23;;
18610;SDS011;9435;52.122;5.502;2022-12-04T03:27:31;94.63;;;30.30;;
18610;SDS011;9435;52.122;5.502;2022-12-04T03:30:09;93.18;;;29.33;;
18610;SDS011;9435;52.122;5.502;2022-12-04T03:32:38;94.80;;;29.02;;
18610;SDS011;9435;52.122;5.502;2022-12-04T03:35:10;93.80;;;29.45;;
18610;SDS011;9435;52.122;5.502;2022-12-04T03:37:43;92.63;;;30.35;;
18610;SDS011;9435;52.122;5.502;2022-12-04T03:40:16;93.63;;;29.83;;
18610;SDS011;9435;52.122;5.502;2022-12-04T03:42:48;92.90;;;29.83;;
18610;SDS011;9435;52.122;5.502;2022-12-04T03:45:24;95.13;;;29.50;;
18610;SDS011;9435;52.122;5.502;2022-12-04T03:47:58;92.57;;;27.77;;
18610;SDS011;9435;52.122;5.502;2022-12-04T03:50:32;84.75;;;28.40;;
18610;SDS011;9435;52.122;5.502;2022-12-04T03:53:04;93.15;;;30.00;;
18610;SDS011;9435;52.122;5.502;2022-12-04T03:55:38;88.72;;;30.40;;
18610;SDS011;9435;52.122;5.502;2022-12-04T03:58:10;93.93;;;30.23;;
18610;SDS011;9435;52.122;5.502;2022-12-04T04:00:43;95.15;;;30.50;;
18610;SDS011;9435;52.122;5.502;2022-12-04T04:03:14;92.72;;;29.38;;
18610;SDS011;9435;52.122;5.502;2022-12-04T04:05:47;87.70;;;28.33;;
18610;SDS011;9435;52.122;5.502;2022-12-04T04:08:19;87.65;;;29.42;;
18610;SDS011;9435;52.122;5.502;2022-12-04T04:10:56;88.93;;;29.02;;
18610;SDS011;9435;52.122;5.502;2022-12-04T04:13:27;100.57;;;30.90;;
18610;SDS011;9435;52.122;5.502;2022-12-04T04:16:19;92.80;;;28.40;;
18610;SDS011;9435;52.122;5.502;2022-12-04T04:19:06;94.85;;;29.98;;
18610;SDS011;9435;52.122;5.502;2022-12-04T04:21:54;95.53;;;30.30;;
18610;SDS011;9435;52.122;5.502;2022-12-04T04:24:40;90.95;;;29.65;;
18610;SDS011;9435;52.122;5.502;2022-12-04T04:27:10;90.03;;;30.10;;
18610;SDS011;9435;52.122;5.502;2022-12-04T04:29:37;99.78;;;30.45;;
18610;SDS011;9435;52.122;5.502;2022-12-04T04:32:07;91.93;;;29.27;;
18610;SDS011;9435;52.122;5.502;2022-12-04T04:34:53;96.63;;;30.02;;
18610;SDS011;9435;52.122;5.502;2022-12-04T04:38:06;92.13;;;29.15;;
18610;SDS011;9435;52.122;5.502;2022-12-04T04:41:15;96.43;;;30.35;;
18610;SDS011;9435;52.122;5.502;2022-12-04T04:44:14;80.55;;;26.13;;
18610;SDS011;9435;52.122;5.502;2022-12-04T04:46:49;95.35;;;30.13;;
18610;SDS011;9435;52.122;5.502;2022-12-04T04:49:20;97.72;;;30.83;;
18610;SDS011;9435;52.122;5.502;2022-12-04T04:51:51;95.03;;;30.33;;
18610;SDS011;9435;52.122;5.502;2022-12-04T04:54:19;99.32;;;31.45;;
18610;SDS011;9435;52.122;5.502;2022-12-04T04:56:47;94.95;;;31.45;;
18610;SDS011;9435;52.122;5.502;2022-12-04T04:59:15;93.25;;;30.45;;
18610;SDS011;9435;52.122;5.502;2022-12-04T05:01:42;95.97;;;31.38;;
18610;SDS011;9435;52.122;5.502;2022-12-04T05:04:11;80.38;;;26.23;;
18610;SDS011;9435;52.122;5.502;2022-12-04T05:06:40;96.82;;;30.90;;
18610;SDS011;9435;52.122;5.502;2022-12-04T05:09:07;86.25;;;28.27;;
18610;SDS011;9435;52.122;5.502;2022-12-04T05:11:34;98.15;;;31.10;;
18610;SDS011;9435;52.122;5.502;2022-12-04T05:14:01;87.03;;;28.63;;
18610;SDS011;9435;52.122;5.502;2022-12-04T05:16:30;102.82;;;32.80;;
18610;SDS011;9435;52.122;5.502;2022-12-04T05:18:57;99.10;;;31.83;;
18610;SDS011;9435;52.122;5.502;2022-12-04T05:21:43;93.20;;;30.10;;
18610;SDS011;9435;52.122;5.502;2022-12-04T05:24:10;91.38;;;29.08;;
18610;SDS011;9435;52.122;5.502;2022-12-04T05:26:37;100.68;;;31.67;;
18610;SDS011;9435;52.122;5.502;2022-12-04T05:29:04;97.13;;;30.42;;
18610;SDS011;9435;52.122;5.502;2022-12-04T05:31:31;91.95;;;30.45;;
18610;SDS011;9435;52.122;5.502;2022-12-04T05:33:59;96.55;;;30.65;;
18610;SDS011;9435;52.122;5.502;2022-12-04T05:36:26;99.32;;;31.40;;
18610;SDS011;9435;52.122;5.502;2022-12-04T05:38:54;89.97;;;29.20;;
18610;SDS011;9435;52.122;5.502;2022-12-04T05:41:21;93.35;;;31.58;;
18610;SDS011;9435;52.122;5.502;2022-12-04T05:43:49;90.93;;;29.67;;
18610;SDS011;9435;52.122;5.502;2022-12-04T05:46:16;95.28;;;30.88;;
18610;SDS011;9435;52.122;5.502;2022-12-04T05:48:43;91.20;;;30.58;;
18610;SDS011;9435;52.122;5.502;2022-12-04T05:51:10;89.38;;;29.73;;
18610;SDS011;9435;52.122;5.502;2022-12-04T05:53:37;95.60;;;30.30;;
18610;SDS011;9435;52.122;5.502;2022-12-04T05:56:06;98.55;;;30.63;;
18610;SDS011;9435;52.122;5.502;2022-12-04T05:58:34;90.93;;;29.15;;
18610;SDS011;9435;52.122;5.502;2022-12-04T06:01:06;91.13;;;29.80;;
18610;SDS011;9435;52.122;5.502;2022-12-04T06:03:34;85.43;;;28.08;;
18610;SDS011;9435;52.122;5.502;2022-12-04T06:06:02;90.88;;;28.75;;
18610;SDS011;9435;52.122;5.502;2022-12-04T06:08:29;87.72;;;29.38;;
18610;SDS011;9435;52.122;5.502;2022-12-04T06:10:56;92.78;;;29.35;;
18610;SDS011;9435;52.122;5.502;2022-12-04T06:13:25;86.03;;;28.90;;
18610;SDS011;9435;52.122;5.502;2022-12-04T06:15:52;89.10;;;28.70;;
18610;SDS011;9435;52.122;5.502;2022-12-04T06:18:19;92.38;;;30.73;;
18610;SDS011;9435;52.122;5.502;2022-12-04T06:20:46;90.85;;;29.27;;
18610;SDS011;9435;52.122;5.502;2022-12-04T06:23:13;89.95;;;29.02;;
18610;SDS011;9435;52.122;5.502;2022-12-04T06:25:40;86.13;;;28.58;;
18610;SDS011;9435;52.122;5.502;2022-12-04T06:28:07;98.00;;;29.48;;
18610;SDS011;9435;52.122;5.502;2022-12-04T06:30:35;89.45;;;29.02;;
18610;SDS011;9435;52.122;5.502;2022-12-04T06:33:02;91.10;;;28.80;;
18610;SDS011;9435;52.122;5.502;2022-12-04T06:35:29;86.53;;;27.83;;
18610;SDS011;9435;52.122;5.502;2022-12-04T06:37:56;91.38;;;29.25;;
18610;SDS011;9435;52.122;5.502;2022-12-04T06:40:23;91.10;;;29.15;;
18610;SDS011;9435;52.122;5.502;2022-12-04T06:42:50;88.40;;;28.60;;
18610;SDS011;9435;52.122;5.502;2022-12-04T06:45:17;86.25;;;28.35;;
18610;SDS011;9435;52.122;5.502;2022-12-04T06:47:46;89.18;;;27.83;;
18610;SDS011;9435;52.122;5.502;2022-12-04T06:50:13;89.40;;;29.10;;
18610;SDS011;9435;52.122;5.502;2022-12-04T06:52:40;86.05;;;28.05;;
18610;SDS011;9435;52.122;5.502;2022-12-04T06:55:07;92.82;;;29.52;;
18610;SDS011;9435;52.122;5.502;2022-12-04T06:57:34;87.28;;;27.48;;
18610;SDS011;9435;52.122;5.502;2022-12-04T07:00:01;90.47;;;28.80;;
18610;SDS011;9435;52.122;5.502;2022-12-04T07:02:29;84.25;;;28.17;;
18610;SDS011;9435;52.122;5.502;2022-12-04T07:04:57;88.03;;;28.55;;
18610;SDS011;9435;52.122;5.502;2022-12-04T07:07:24;96.20;;;28.73;;
18610;SDS011;9435;52.122;5.502;2022-12-04T07:09:51;88.35;;;29.48;;
18610;SDS011;9435;52.122;5.502;2022-12-04T07:12:18;91.07;;;29.10;;
18610;SDS011;9435;52.122;5.502;2022-12-04T07:14:45;88.07;;;27.85;;
18610;SDS011;9435;52.122;5.502;2022-12-04T07:17:12;87.53;;;28.95;;
18610;SDS011;9435;52.122;5.502;2022-12-04T07:19:39;91.85;;;29.20;;
18610;SDS011;9435;52.122;5.502;2022-12-04T07:22:07;93.72;;;29.80;;
18610;SDS011;9435;52.122;5.502;2022-12-04T07:24:35;88.50;;;28.48;;
18610;SDS011;9435;52.122;5.502;2022-12-04T07:27:02;82.47;;;27.55;;
18610;SDS011;9435;52.122;5.502;2022-12-04T07:29:29;84.63;;;27.75;;
18610;SDS011;9435;52.122;5.502;2022-12-04T07:31:57;88.25;;;29.63;;
18610;SDS011;9435;52.122;5.502;2022-12-04T07:34:24;93.07;;;29.70;;
18610;SDS011;9435;52.122;5.502;2022-12-04T07:36:51;95.70;;;30.23;;
18610;SDS011;9435;52.122;5.502;2022-12-04T07:39:19;91.97;;;28.63;;
18610;SDS011;9435;52.122;5.502;2022-12-04T07:41:46;88.20;;;29.55;;
18610;SDS011;9435;52.122;5.502;2022-12-04T07:44:13;93.28;;;30.70;;
18610;SDS011;9435;52.122;5.502;2022-12-04T07:46:40;89.55;;;28.75;;
18610;SDS011;9435;52.122;5.502;2022-12-04T07:49:09;92.88;;;30.30;;
18610;SDS011;9435;52.122;5.502;2022-12-04T07:51:37;92.18;;;28.70;;
18610;SDS011;9435;52.122;5.502;2022-12-04T07:54:05;89.13;;;28.63;;
18610;SDS011;9435;52.122;5.502;2022-12-04T07:56:34;92.40;;;29.77;;
18610;SDS011;9435;52.122;5.502;2022-12-04T07:59:01;98.00;;;30.85;;
18610;SDS011;9435;52.122;5.502;2022-12-04T08:01:28;91.80;;;29.05;;
18610;SDS011;9435;52.122;5.502;2022-12-04T08:03:56;86.25;;;28.58;;
18610;SDS011;9435;52.122;5.502;2022-12-04T08:06:24;96.93;;;27.95;;
18610;SDS011;9435;52.122;5.502;2022-12-04T08:08:54;91.35;;;29.08;;
18610;SDS011;9435;52.122;5.502;2022-12-04T08:11:23;89.38;;;27.98;;
18610;SDS011;9435;52.122;5.502;2022-12-04T08:13:54;91.45;;;29.17;;
18610;SDS011;9435;52.122;5.502;2022-12-04T08:16:22;84.28;;;27.90;;
18610;SDS011;9435;52.122;5.502;2022-12-04T08:18:49;89.35;;;28.73;;
18610;SDS011;9435;52.122;5.502;2022-12-04T08:21:18;85.05;;;29.48;;
18610;SDS011;9435;52.122;5.502;2022-12-04T08:23:47;100.95;;;30.35;;
18610;SDS011;9435;52.122;5.502;2022-12-04T08:26:16;86.90;;;29.02;;
18610;SDS011;9435;52.122;5.502;2022-12-04T08:28:44;91.20;;;28.25;;
18610;SDS011;9435;52.122;5.502;2022-12-04T08:31:13;93.22;;;28.95;;
18610;SDS011;9435;52.122;5.502;2022-12-04T08:33:43;96.00;;;29.70;;
18610;SDS011;9435;52.122;5.502;2022-12-04T08:36:12;89.80;;;28.95;;
18610;SDS011;9435;52.122;5.502;2022-12-04T08:38:41;91.45;;;29.05;;
18610;SDS011;9435;52.122;5.502;2022-12-04T08:41:10;92.78;;;29.85;;
18610;SDS011;9435;52.122;5.502;2022-12-04T08:43:38;85.13;;;27.80;;
18610;SDS011;9435;52.122;5.502;2022-12-04T08:46:06;84.53;;;28.08;;
18610;SDS011;9435;52.122;5.502;2022-12-04T08:48:36;82.88;;;26.73;;
18610;SDS011;9435;52.122;5.502;2022-12-04T08:51:04;87.65;;;27.90;;
18610;SDS011;9435;52.122;5.502;2022-12-04T08:53:32;83.22;;;26.85;;
18610;SDS011;9435;52.122;5.502;2022-12-04T08:56:00;94.43;;;29.73;;
18610;SDS011;9435;52.122;5.502;2022-12-04T08:58:27;93.28;;;29.10;;
18610;SDS011;9435;52.122;5.502;2022-12-04T09:00:54;83.32;;;28.42;;
18610;SDS011;9435;52.122;5.502;2022-12-04T09:03:21;83.25;;;26.02;;
18610;SDS011;9435;52.122;5.502;2022-12-04T09:05:50;91.88;;;27.00;;
18610;SDS011;9435;52.122;5.502;2022-12-04T09:08:17;93.43;;;28.73;;
18610;SDS011;9435;52.122;5.502;2022-12-04T09:10:44;86.78;;;28.02;;
18610;SDS011;9435;52.122;5.502;2022-12-04T09:13:11;82.57;;;26.70;;
18610;SDS011;9435;52.122;5.502;2022-12-04T09:15:38;91.47;;;28.52;;
18610;SDS011;9435;52.122;5.502;2022-12-04T09:18:06;89.53;;;28.52;;
18610;SDS011;9435;52.122;5.502;2022-12-04T09:20:36;89.28;;;28.40;;
18610;SDS011;9435;52.122;5.502;2022-12-04T09:23:04;88.80;;;29.15;;
18610;SDS011;9435;52.122;5.502;2022-12-04T09:25:34;86.15;;;26.75;;
18610;SDS011;9435;52.122;5.502;2022-12-04T09:28:01;89.05;;;28.73;;
18610;SDS011;9435;52.122;5.502;2022-12-04T09:30:28;89.10;;;26.30;;
18610;SDS011;9435;52.122;5.502;2022-12-04T09:32:56;82.72;;;26.73;;
18610;SDS011;9435;52.122;5.502;2022-12-04T09:35:23;85.38;;;26.67;;
18610;SDS011;9435;52.122;5.502;2022-12-04T09:37:50;85.40;;;27.13;;
18610;SDS011;9435;52.122;5.502;2022-12-04T09:40:21;91.07;;;28.48;;
18610;SDS011;9435;52.122;5.502;2022-12-04T09:42:53;84.88;;;27.08;;
18610;SDS011;9435;52.122;5.502;2022-12-04T09:45:27;85.50;;;27.10;;
18610;SDS011;9435;52.122;5.502;2022-12-04T09:48:07;90.43;;;27.58;;
18610;SDS011;9435;52.122;5.502;2022-12-04T09:50:36;80.03;;;26.27;;
18610;SDS011;9435;52.122;5.502;2022-12-04T09:53:08;85.82;;;26.42;;
18610;SDS011;9435;52.122;5.502;2022-12-04T09:55:39;89.82;;;26.88;;
18610;SDS011;9435;52.122;5.502;2022-12-04T09:58:11;86.13;;;26.65;;
18610;SDS011;9435;52.122;5.502;2022-12-04T10:00:41;86.63;;;25.63;;
18610;SDS011;9435;52.122;5.502;2022-12-04T10:03:12;77.18;;;25.38;;
18610;SDS011;9435;52.122;5.502;2022-12-04T10:05:44;83.80;;;25.33;;
18610;SDS011;9435;52.122;5.502;2022-12-04T10:08:19;77.07;;;24.08;;
18610;SDS011;9435;52.122;5.502;2022-12-04T10:10:52;76.03;;;25.02;;
18610;SDS011;9435;52.122;5.502;2022-12-04T10:13:39;71.07;;;22.60;;
18610;SDS011;9435;52.122;5.502;2022-12-04T10:16:27;63.03;;;21.55;;
18610;SDS011;9435;52.122;5.502;2022-12-04T10:19:04;63.28;;;21.40;;
18610;SDS011;9435;52.122;5.502;2022-12-04T10:21:39;65.80;;;20.95;;
18610;SDS011;9435;52.122;5.502;2022-12-04T10:24:20;62.78;;;21.05;;
18610;SDS011;9435;52.122;5.502;2022-12-04T10:26:59;60.92;;;21.05;;
18610;SDS011;9435;52.122;5.502;2022-12-04T10:29:31;65.90;;;23.17;;
18610;SDS011;9435;52.122;5.502;2022-12-04T10:32:02;61.60;;;20.83;;
18610;SDS011;9435;52.122;5.502;2022-12-04T10:34:39;52.78;;;17.25;;
18610;SDS011;9435;52.122;5.502;2022-12-04T10:37:08;59.33;;;19.88;;
18610;SDS011;9435;52.122;5.502;2022-12-04T10:39:39;57.90;;;19.52;;
18610;SDS011;9435;52.122;5.502;2022-12-04T10:42:13;57.05;;;19.90;;
18610;SDS011;9435;52.122;5.502;2022-12-04T10:44:46;48.38;;;17.10;;
18610;SDS011;9435;52.122;5.502;2022-12-04T10:47:13;51.47;;;18.58;;
18610;SDS011;9435;52.122;5.502;2022-12-04T10:49:40;49.53;;;17.75;;
18610;SDS011;9435;52.122;5.502;2022-12-04T10:52:08;52.25;;;18.15;;
18610;SDS011;9435;52.122;5.502;2022-12-04T10:54:41;51.70;;;16.75;;
18610;SDS011;9435;52.122;5.502;2022-12-04T10:57:14;50.45;;;16.52;;
18610;SDS011;9435;52.122;5.502;2022-12-04T10:59:47;44.10;;;16.20;;
18610;SDS011;9435;52.122;5.502;2022-12-04T11:02:20;47.83;;;17.17;;
18610;SDS011;9435;52.122;5.502;2022-12-04T11:04:50;52.30;;;17.98;;
18610;SDS011;9435;52.122;5.502;2022-12-04T11:07:22;52.35;;;17.42;;
18610;SDS011;9435;52.122;5.502;2022-12-04T11:09:58;45.03;;;16.52;;
18610;SDS011;9435;52.122;5.502;2022-12-04T11:12:29;49.58;;;17.98;;
18610;SDS011;9435;52.122;5.502;2022-12-04T11:15:00;42.92;;;16.15;;
18610;SDS011;9435;52.122;5.502;2022-12-04T11:17:37;48.17;;;16.90;;
18610;SDS011;9435;52.122;5.502;2022-12-04T11:20:05;44.85;;;16.58;;
18610;SDS011;9435;52.122;5.502;2022-12-04T11:22:34;37.83;;;14.88;;
18610;SDS011;9435;52.122;5.502;2022-12-04T11:25:13;40.65;;;16.10;;
18610;SDS011;9435;52.122;5.502;2022-12-04T11:27:45;42.38;;;16.48;;
18610;SDS011;9435;52.122;5.502;2022-12-04T11:30:18;45.58;;;17.13;;
18610;SDS011;9435;52.122;5.502;2022-12-04T11:32:50;47.10;;;17.25;;
18610;SDS011;9435;52.122;5.502;2022-12-04T11:35:19;44.35;;;17.00;;
18610;SDS011;9435;52.122;5.502;2022-12-04T11:37:52;39.33;;;15.75;;
18610;SDS011;9435;52.122;5.502;2022-12-04T11:40:22;39.67;;;15.50;;
18610;SDS011;9435;52.122;5.502;2022-12-04T11:43:00;38.25;;;15.38;;
18610;SDS011;9435;52.122;5.502;2022-12-04T11:45:28;38.20;;;14.85;;
18610;SDS011;9435;52.122;5.502;2022-12-04T11:47:56;40.25;;;15.65;;
18610;SDS011;9435;52.122;5.502;2022-12-04T11:50:27;39.40;;;15.88;;
18610;SDS011;9435;52.122;5.502;2022-12-04T11:53:04;42.50;;;15.40;;
18610;SDS011;9435;52.122;5.502;2022-12-04T11:55:42;38.88;;;14.80;;
18610;SDS011;9435;52.122;5.502;2022-12-04T11:58:48;37.08;;;15.05;;
18610;SDS011;9435;52.122;5.502;2022-12-04T12:01:28;37.05;;;15.18;;
18610;SDS011;9435;52.122;5.502;2022-12-04T12:04:08;38.92;;;14.98;;
18610;SDS011;9435;52.122;5.502;2022-12-04T12:07:12;39.67;;;15.35;;
18610;SDS011;9435;52.122;5.502;2022-12-04T12:09:51;36.10;;;14.27;;
18610;SDS011;9435;52.122;5.502;2022-12-04T12:12:25;35.35;;;14.20;;
18610;SDS011;9435;52.122;5.502;2022-12-04T12:15:02;36.65;;;14.85;;
18610;SDS011;9435;52.122;5.502;2022-12-04T12:17:38;35.30;;;14.40;;
18610;SDS011;9435;52.122;5.502;2022-12-04T12:20:14;36.05;;;14.30;;
18610;SDS011;9435;52.122;5.502;2022-12-04T12:22:56;39.38;;;14.70;;
18610;SDS011;9435;52.122;5.502;2022-12-04T12:25:40;35.67;;;14.40;;
18610;SDS011;9435;52.122;5.502;2022-12-04T12:28:17;35.20;;;13.70;;
18610;SDS011;9435;52.122;5.502;2022-12-04T12:31:00;33.28;;;12.70;;
18610;SDS011;9435;52.122;5.502;2022-12-04T12:33:41;33.15;;;13.63;;
18610;SDS011;9435;52.122;5.502;2022-12-04T12:36:14;37.35;;;15.07;;
18610;SDS011;9435;52.122;5.502;2022-12-04T12:38:46;35.75;;;13.55;;
18610;SDS011;9435;52.122;5.502;2022-12-04T12:41:16;35.60;;;14.40;;
18610;SDS011;9435;52.122;5.502;2022-12-04T12:43:47;33.28;;;14.18;;
18610;SDS011;9435;52.122;5.502;2022-12-04T12:46:22;36.42;;;14.27;;
18610;SDS011;9435;52.122;5.502;2022-12-04T12:48:57;36.22;;;14.68;;
18610;SDS011;9435;52.122;5.502;2022-12-04T12:51:29;36.58;;;14.18;;
18610;SDS011;9435;52.122;5.502;2022-12-04T12:54:03;35.83;;;14.02;;
18610;SDS011;9435;52.122;5.502;2022-12-04T12:56:39;36.53;;;15.18;;
18610;SDS011;9435;52.122;5.502;2022-12-04T12:59:11;33.55;;;14.65;;
18610;SDS011;9435;52.122;5.502;2022-12-04T13:01:44;32.30;;;13.55;;
18610;SDS011;9435;52.122;5.502;2022-12-04T13:04:18;40.58;;;15.02;;
18610;SDS011;9435;52.122;5.502;2022-12-04T13:06:50;42.70;;;13.90;;
18610;SDS011;9435;52.122;5.502;2022-12-04T13:09:23;38.05;;;15.52;;
18610;SDS011;9435;52.122;5.502;2022-12-04T13:11:56;35.47;;;14.32;;
18610;SDS011;9435;52.122;5.502;2022-12-04T13:14:27;32.67;;;14.07;;
18610;SDS011;9435;52.122;5.502;2022-12-04T13:16:56;36.78;;;14.65;;
18610;SDS011;9435;52.122;5.502;2022-12-04T13:19:27;33.75;;;14.23;;
18610;SDS011;9435;52.122;5.502;2022-12-04T13:21:59;35.38;;;15.25;;
18610;SDS011;9435;52.122;5.502;2022-12-04T13:24:41;39.33;;;15.15;;
18610;SDS011;9435;52.122;5.502;2022-12-04T13:27:30;36.65;;;15.07;;
18610;SDS011;9435;52.122;5.502;2022-12-04T13:30:09;44.20;;;16.88;;
18610;SDS011;9435;52.122;5.502;2022-12-04T13:32:49;38.45;;;16.30;;
18610;SDS011;9435;52.122;5.502;2022-12-04T13:35:45;35.40;;;15.07;;
18610;SDS011;9435;52.122;5.502;2022-12-04T13:38:41;35.72;;;14.90;;
18610;SDS011;9435;52.122;5.502;2022-12-04T13:41:20;39.25;;;16.45;;
18610;SDS011;9435;52.122;5.502;2022-12-04T13:43:49;39.33;;;15.75;;
18610;SDS011;9435;52.122;5.502;2022-12-04T13:46:30;39.55;;;15.80;;
18610;SDS011;9435;52.122;5.502;2022-12-04T13:49:08;37.83;;;16.08;;
18610;SDS011;9435;52.122;5.502;2022-12-04T13:51:49;38.97;;;15.25;;
18610;SDS011;9435;52.122;5.502;2022-12-04T13:54:21;43.35;;;16.98;;
18610;SDS011;9435;52.122;5.502;2022-12-04T13:56:54;48.05;;;19.38;;
18610;SDS011;9435;52.122;5.502;2022-12-04T13:59:32;41.78;;;17.25;;
18610;SDS011;9435;52.122;5.502;2022-12-04T14:02:01;43.58;;;17.27;;
18610;SDS011;9435;52.122;5.502;2022-12-04T14:04:51;43.53;;;17.27;;
18610;SDS011;9435;52.122;5.502;2022-12-04T14:07:23;45.35;;;18.02;;
18610;SDS011;9435;52.122;5.502;2022-12-04T14:09:53;42.85;;;16.90;;
18610;SDS011;9435;52.122;5.502;2022-12-04T14:12:23;41.15;;;16.63;;
18610;SDS011;9435;52.122;5.502;2022-12-04T14:14:53;44.20;;;18.52;;
18610;SDS011;9435;52.122;5.502;2022-12-04T14:17:23;44.30;;;17.30;;
18610;SDS011;9435;52.122;5.502;2022-12-04T14:19:55;48.45;;;18.13;;
18610;SDS011;9435;52.122;5.502;2022-12-04T14:22:28;47.50;;;17.92;;
18610;SDS011;9435;52.122;5.502;2022-12-04T14:25:06;47.38;;;18.48;;
18610;SDS011;9435;52.122;5.502;2022-12-04T14:27:46;43.55;;;17.73;;
18610;SDS011;9435;52.122;5.502;2022-12-04T14:30:17;49.08;;;19.00;;
18610;SDS011;9435;52.122;5.502;2022-12-04T14:32:47;48.80;;;18.55;;
18610;SDS011;9435;52.122;5.502;2022-12-04T14:35:18;52.85;;;19.70;;
18610;SDS011;9435;52.122;5.502;2022-12-04T14:37:49;49.80;;;18.85;;
18610;SDS011;9435;52.122;5.502;2022-12-04T14:40:21;53.35;;;21.08;;
18610;SDS011;9435;52.122;5.502;2022-12-04T14:42:50;54.17;;;20.00;;
18610;SDS011;9435;52.122;5.502;2022-12-04T14:45:28;55.70;;;20.67;;
18610;SDS011;9435;52.122;5.502;2022-12-04T14:48:17;60.63;;;21.85;;
18610;SDS011;9435;52.122;5.502;2022-12-04T14:50:58;59.03;;;22.15;;
18610;SDS011;9435;52.122;5.502;2022-12-04T14:53:34;61.05;;;21.42;;
18610;SDS011;9435;52.122;5.502;2022-12-04T14:56:16;63.28;;;22.90;;
18610;SDS011;9435;52.122;5.502;2022-12-04T14:58:55;62.95;;;23.40;;
18610;SDS011;9435;52.122;5.502;2022-12-04T15:01:24;62.13;;;22.30;;